sensor_id;sensor_type;location;lat;lon;timestamp;P1;durP1;ratioP1;P2;durP2;ratioP2
60973;SDS011;46846;51.528;5.076;2022-12-20T00:00:56;73.22;;;68.93;;
60973;SDS011;46846;51.528;5.076;2022-12-20T00:03:21;76.33;;;71.83;;
60973;SDS011;46846;51.528;5.076;2022-12-20T00:05:47;69.82;;;65.70;;
60973;SDS011;46846;51.528;5.076;2022-12-20T00:08:13;71.03;;;66.85;;
60973;SDS011;46846;51.528;5.076;2022-12-20T00:10:40;67.35;;;63.35;;
60973;SDS011;46846;51.528;5.076;2022-12-20T00:13:07;77.20;;;72.32;;
60973;SDS011;46846;51.528;5.076;2022-12-20T00:15:33;67.95;;;63.97;;
60973;SDS011;46846;51.528;5.076;2022-12-20T00:17:59;73.00;;;68.63;;
60973;SDS011;46846;51.528;5.076;2022-12-20T00:20:26;75.18;;;70.57;;
60973;SDS011;46846;51.528;5.076;2022-12-20T00:22:52;74.47;;;70.07;;
60973;SDS011;46846;51.528;5.076;2022-12-20T00:25:18;70.55;;;66.47;;
60973;SDS011;46846;51.528;5.076;2022-12-20T00:27:47;67.35;;;63.47;;
60973;SDS011;46846;51.528;5.076;2022-12-20T00:32:38;65.75;;;61.67;;
60973;SDS011;46846;51.528;5.076;2022-12-20T00:35:04;68.00;;;64.00;;
60973;SDS011;46846;51.528;5.076;2022-12-20T00:37:30;68.80;;;64.80;;
60973;SDS011;46846;51.528;5.076;2022-12-20T00:39:55;72.95;;;68.60;;
60973;SDS011;46846;51.528;5.076;2022-12-20T00:42:20;66.53;;;62.73;;
60973;SDS011;46846;51.528;5.076;2022-12-20T00:44:46;66.23;;;62.40;;
60973;SDS011;46846;51.528;5.076;2022-12-20T00:47:11;67.30;;;63.43;;
60973;SDS011;46846;51.528;5.076;2022-12-20T00:49:36;68.05;;;64.03;;
60973;SDS011;46846;51.528;5.076;2022-12-20T00:52:02;66.80;;;62.83;;
60973;SDS011;46846;51.528;5.076;2022-12-20T00:54:27;69.57;;;65.10;;
60973;SDS011;46846;51.528;5.076;2022-12-20T00:56:52;63.33;;;59.60;;
60973;SDS011;46846;51.528;5.076;2022-12-20T00:59:18;63.03;;;59.33;;
60973;SDS011;46846;51.528;5.076;2022-12-20T01:01:45;72.03;;;66.93;;
60973;SDS011;46846;51.528;5.076;2022-12-20T01:04:11;70.10;;;66.07;;
60973;SDS011;46846;51.528;5.076;2022-12-20T01:06:37;68.65;;;64.38;;
60973;SDS011;46846;51.528;5.076;2022-12-20T01:09:05;69.15;;;64.68;;
60973;SDS011;46846;51.528;5.076;2022-12-20T01:11:31;74.10;;;69.80;;
60973;SDS011;46846;51.528;5.076;2022-12-20T01:14:00;68.85;;;64.85;;
60973;SDS011;46846;51.528;5.076;2022-12-20T01:16:28;71.40;;;67.22;;
60973;SDS011;46846;51.528;5.076;2022-12-20T01:18:56;72.22;;;67.85;;
60973;SDS011;46846;51.528;5.076;2022-12-20T01:21:24;69.60;;;65.25;;
60973;SDS011;46846;51.528;5.076;2022-12-20T01:23:50;74.00;;;69.60;;
60973;SDS011;46846;51.528;5.076;2022-12-20T01:26:18;71.33;;;67.20;;
60973;SDS011;46846;51.528;5.076;2022-12-20T01:28:46;73.18;;;68.78;;
60973;SDS011;46846;51.528;5.076;2022-12-20T01:31:14;65.60;;;61.65;;
60973;SDS011;46846;51.528;5.076;2022-12-20T01:33:41;71.50;;;67.28;;
60973;SDS011;46846;51.528;5.076;2022-12-20T01:36:09;68.07;;;64.05;;
60973;SDS011;46846;51.528;5.076;2022-12-20T01:38:36;72.75;;;68.47;;
60973;SDS011;46846;51.528;5.076;2022-12-20T01:41:02;69.10;;;64.97;;
60973;SDS011;46846;51.528;5.076;2022-12-20T01:46:40;72.38;;;68.07;;
60973;SDS011;46846;51.528;5.076;2022-12-20T01:52:01;68.30;;;64.15;;
60973;SDS011;46846;51.528;5.076;2022-12-20T01:54:31;69.93;;;65.85;;
60973;SDS011;46846;51.528;5.076;2022-12-20T01:57:04;75.63;;;70.72;;
60973;SDS011;46846;51.528;5.076;2022-12-20T01:59:33;74.57;;;69.72;;
60973;SDS011;46846;51.528;5.076;2022-12-20T02:02:04;68.25;;;64.18;;
60973;SDS011;46846;51.528;5.076;2022-12-20T02:04:33;76.75;;;72.18;;
60973;SDS011;46846;51.528;5.076;2022-12-20T02:06:59;72.93;;;68.75;;
60973;SDS011;46846;51.528;5.076;2022-12-20T02:09:26;70.68;;;66.57;;
60973;SDS011;46846;51.528;5.076;2022-12-20T02:17:44;77.53;;;72.95;;
60973;SDS011;46846;51.528;5.076;2022-12-20T02:26:29;65.65;;;61.72;;
60973;SDS011;46846;51.528;5.076;2022-12-20T02:29:19;68.63;;;64.60;;
60973;SDS011;46846;51.528;5.076;2022-12-20T02:32:02;69.00;;;64.80;;
60973;SDS011;46846;51.528;5.076;2022-12-20T02:34:33;72.85;;;68.45;;
60973;SDS011;46846;51.528;5.076;2022-12-20T02:37:00;76.45;;;71.88;;
60973;SDS011;46846;51.528;5.076;2022-12-20T02:39:26;68.07;;;63.88;;
60973;SDS011;46846;51.528;5.076;2022-12-20T02:41:55;71.93;;;67.78;;
60973;SDS011;46846;51.528;5.076;2022-12-20T02:44:25;79.80;;;75.25;;
60973;SDS011;46846;51.528;5.076;2022-12-20T02:47:14;70.32;;;66.13;;
60973;SDS011;46846;51.528;5.076;2022-12-20T02:49:46;72.65;;;68.50;;
60973;SDS011;46846;51.528;5.076;2022-12-20T02:52:15;69.25;;;65.20;;
60973;SDS011;46846;51.528;5.076;2022-12-20T02:54:43;72.22;;;67.93;;
60973;SDS011;46846;51.528;5.076;2022-12-20T03:00:03;77.32;;;72.80;;
60973;SDS011;46846;51.528;5.076;2022-12-20T03:02:31;80.50;;;75.85;;
60973;SDS011;46846;51.528;5.076;2022-12-20T03:05:18;71.18;;;66.75;;
60973;SDS011;46846;51.528;5.076;2022-12-20T03:07:45;73.38;;;68.82;;
60973;SDS011;46846;51.528;5.076;2022-12-20T03:10:11;71.53;;;67.22;;
60973;SDS011;46846;51.528;5.076;2022-12-20T03:12:36;74.25;;;69.43;;
60973;SDS011;46846;51.528;5.076;2022-12-20T03:15:01;74.63;;;70.37;;
60973;SDS011;46846;51.528;5.076;2022-12-20T03:17:27;75.78;;;71.32;;
60973;SDS011;46846;51.528;5.076;2022-12-20T03:19:53;71.07;;;66.78;;
60973;SDS011;46846;51.528;5.076;2022-12-20T03:22:18;74.93;;;70.67;;
60973;SDS011;46846;51.528;5.076;2022-12-20T03:24:43;75.37;;;70.97;;
60973;SDS011;46846;51.528;5.076;2022-12-20T03:27:09;72.77;;;68.57;;
60973;SDS011;46846;51.528;5.076;2022-12-20T03:29:34;69.35;;;65.43;;
60973;SDS011;46846;51.528;5.076;2022-12-20T03:31:59;73.13;;;68.57;;
60973;SDS011;46846;51.528;5.076;2022-12-20T03:34:25;75.37;;;70.97;;
60973;SDS011;46846;51.528;5.076;2022-12-20T03:36:50;72.60;;;68.43;;
60973;SDS011;46846;51.528;5.076;2022-12-20T03:39:15;74.80;;;69.90;;
60973;SDS011;46846;51.528;5.076;2022-12-20T03:41:41;80.38;;;75.18;;
60973;SDS011;46846;51.528;5.076;2022-12-20T03:44:06;73.95;;;69.53;;
60973;SDS011;46846;51.528;5.076;2022-12-20T03:46:32;71.43;;;67.18;;
60973;SDS011;46846;51.528;5.076;2022-12-20T03:48:57;71.38;;;67.28;;
60973;SDS011;46846;51.528;5.076;2022-12-20T03:51:23;72.00;;;67.83;;
60973;SDS011;46846;51.528;5.076;2022-12-20T03:53:48;74.05;;;69.78;;
60973;SDS011;46846;51.528;5.076;2022-12-20T03:56:13;66.03;;;62.20;;
60973;SDS011;46846;51.528;5.076;2022-12-20T03:58:39;74.55;;;70.20;;
60973;SDS011;46846;51.528;5.076;2022-12-20T04:01:20;73.07;;;68.80;;
60973;SDS011;46846;51.528;5.076;2022-12-20T04:03:50;67.13;;;63.17;;
60973;SDS011;46846;51.528;5.076;2022-12-20T04:06:16;76.85;;;72.47;;
60973;SDS011;46846;51.528;5.076;2022-12-20T04:08:42;69.65;;;65.68;;
60973;SDS011;46846;51.528;5.076;2022-12-20T04:11:08;70.68;;;66.57;;
60973;SDS011;46846;51.528;5.076;2022-12-20T04:13:44;74.47;;;70.17;;
60973;SDS011;46846;51.528;5.076;2022-12-20T04:16:14;69.28;;;65.20;;
60973;SDS011;46846;51.528;5.076;2022-12-20T04:18:42;76.70;;;72.32;;
60973;SDS011;46846;51.528;5.076;2022-12-20T04:21:07;73.57;;;69.25;;
60973;SDS011;46846;51.528;5.076;2022-12-20T04:23:35;75.55;;;71.05;;
60973;SDS011;46846;51.528;5.076;2022-12-20T04:26:02;74.65;;;70.20;;
60973;SDS011;46846;51.528;5.076;2022-12-20T04:28:28;71.75;;;67.43;;
60973;SDS011;46846;51.528;5.076;2022-12-20T04:30:55;76.35;;;71.82;;
60973;SDS011;46846;51.528;5.076;2022-12-20T04:35:46;75.63;;;70.93;;
60973;SDS011;46846;51.528;5.076;2022-12-20T04:38:12;72.43;;;68.05;;
60973;SDS011;46846;51.528;5.076;2022-12-20T04:40:37;72.13;;;67.90;;
60973;SDS011;46846;51.528;5.076;2022-12-20T04:43:02;73.93;;;69.65;;
60973;SDS011;46846;51.528;5.076;2022-12-20T04:45:28;79.82;;;74.93;;
60973;SDS011;46846;51.528;5.076;2022-12-20T04:47:53;77.32;;;72.82;;
60973;SDS011;46846;51.528;5.076;2022-12-20T04:50:18;71.47;;;67.37;;
60973;SDS011;46846;51.528;5.076;2022-12-20T04:52:44;74.05;;;69.55;;
60973;SDS011;46846;51.528;5.076;2022-12-20T04:55:28;81.18;;;76.38;;
60973;SDS011;46846;51.528;5.076;2022-12-20T04:57:53;81.33;;;76.37;;
60973;SDS011;46846;51.528;5.076;2022-12-20T05:00:18;71.17;;;66.93;;
60973;SDS011;46846;51.528;5.076;2022-12-20T05:05:10;73.22;;;68.97;;
60973;SDS011;46846;51.528;5.076;2022-12-20T05:07:35;80.43;;;75.83;;
60973;SDS011;46846;51.528;5.076;2022-12-20T05:10:01;76.72;;;72.20;;
60973;SDS011;46846;51.528;5.076;2022-12-20T05:12:26;78.82;;;74.35;;
60973;SDS011;46846;51.528;5.076;2022-12-20T05:14:52;83.40;;;78.60;;
60973;SDS011;46846;51.528;5.076;2022-12-20T05:17:17;77.40;;;73.00;;
60973;SDS011;46846;51.528;5.076;2022-12-20T05:19:42;79.00;;;74.30;;
60973;SDS011;46846;51.528;5.076;2022-12-20T05:22:09;75.75;;;71.40;;
60973;SDS011;46846;51.528;5.076;2022-12-20T05:24:53;82.20;;;77.45;;
60973;SDS011;46846;51.528;5.076;2022-12-20T05:27:37;82.40;;;77.57;;
60973;SDS011;46846;51.528;5.076;2022-12-20T05:30:02;74.87;;;70.43;;
60973;SDS011;46846;51.528;5.076;2022-12-20T05:32:28;72.55;;;68.30;;
60973;SDS011;46846;51.528;5.076;2022-12-20T05:34:53;75.28;;;70.85;;
60973;SDS011;46846;51.528;5.076;2022-12-20T05:37:19;75.50;;;70.97;;
60973;SDS011;46846;51.528;5.076;2022-12-20T05:39:44;81.87;;;77.03;;
60973;SDS011;46846;51.528;5.076;2022-12-20T05:42:09;79.47;;;74.72;;
60973;SDS011;46846;51.528;5.076;2022-12-20T05:44:36;86.20;;;81.30;;
60973;SDS011;46846;51.528;5.076;2022-12-20T05:47:01;75.70;;;71.00;;
60973;SDS011;46846;51.528;5.076;2022-12-20T05:49:27;71.90;;;67.78;;
60973;SDS011;46846;51.528;5.076;2022-12-20T05:51:52;77.30;;;72.78;;
60973;SDS011;46846;51.528;5.076;2022-12-20T05:54:18;77.72;;;73.30;;
60973;SDS011;46846;51.528;5.076;2022-12-20T05:56:43;78.25;;;73.75;;
60973;SDS011;46846;51.528;5.076;2022-12-20T05:59:08;82.75;;;77.82;;
60973;SDS011;46846;51.528;5.076;2022-12-20T06:01:34;82.80;;;77.93;;
60973;SDS011;46846;51.528;5.076;2022-12-20T06:03:59;80.05;;;74.93;;
60973;SDS011;46846;51.528;5.076;2022-12-20T06:06:25;79.43;;;74.87;;
60973;SDS011;46846;51.528;5.076;2022-12-20T06:08:50;80.73;;;76.10;;
60973;SDS011;46846;51.528;5.076;2022-12-20T06:11:15;80.68;;;76.10;;
60973;SDS011;46846;51.528;5.076;2022-12-20T06:13:41;74.22;;;69.63;;
60973;SDS011;46846;51.528;5.076;2022-12-20T06:16:06;78.10;;;73.45;;
60973;SDS011;46846;51.528;5.076;2022-12-20T06:18:31;76.30;;;71.85;;
60973;SDS011;46846;51.528;5.076;2022-12-20T06:20:57;78.60;;;74.07;;
60973;SDS011;46846;51.528;5.076;2022-12-20T06:23:22;82.25;;;77.28;;
60973;SDS011;46846;51.528;5.076;2022-12-20T06:25:48;78.47;;;73.88;;
60973;SDS011;46846;51.528;5.076;2022-12-20T06:28:13;80.70;;;75.88;;
60973;SDS011;46846;51.528;5.076;2022-12-20T06:30:40;79.30;;;74.80;;
60973;SDS011;46846;51.528;5.076;2022-12-20T06:33:05;79.38;;;74.70;;
60973;SDS011;46846;51.528;5.076;2022-12-20T06:35:31;78.78;;;74.07;;
60973;SDS011;46846;51.528;5.076;2022-12-20T06:37:56;78.77;;;74.23;;
60973;SDS011;46846;51.528;5.076;2022-12-20T06:40:22;79.45;;;74.88;;
60973;SDS011;46846;51.528;5.076;2022-12-20T06:42:47;81.70;;;77.07;;
60973;SDS011;46846;51.528;5.076;2022-12-20T06:45:14;80.43;;;75.82;;
60973;SDS011;46846;51.528;5.076;2022-12-20T06:47:40;77.13;;;72.68;;
60973;SDS011;46846;51.528;5.076;2022-12-20T06:50:05;77.82;;;72.88;;
60973;SDS011;46846;51.528;5.076;2022-12-20T06:52:31;77.57;;;72.45;;
60973;SDS011;46846;51.528;5.076;2022-12-20T06:54:56;81.72;;;76.82;;
60973;SDS011;46846;51.528;5.076;2022-12-20T06:57:22;67.78;;;63.88;;
60973;SDS011;46846;51.528;5.076;2022-12-20T06:59:47;78.55;;;74.00;;
60973;SDS011;46846;51.528;5.076;2022-12-20T07:02:13;76.93;;;72.15;;
60973;SDS011;46846;51.528;5.076;2022-12-20T07:04:38;79.82;;;74.80;;
60973;SDS011;46846;51.528;5.076;2022-12-20T07:07:04;79.13;;;74.03;;
60973;SDS011;46846;51.528;5.076;2022-12-20T07:09:29;76.63;;;72.22;;
60973;SDS011;46846;51.528;5.076;2022-12-20T07:11:55;78.45;;;73.57;;
60973;SDS011;46846;51.528;5.076;2022-12-20T07:14:21;78.55;;;73.75;;
60973;SDS011;46846;51.528;5.076;2022-12-20T07:16:46;76.43;;;72.03;;
60973;SDS011;46846;51.528;5.076;2022-12-20T07:19:12;81.55;;;76.75;;
60973;SDS011;46846;51.528;5.076;2022-12-20T07:21:39;81.82;;;77.00;;
60973;SDS011;46846;51.528;5.076;2022-12-20T07:24:05;74.80;;;70.38;;
60973;SDS011;46846;51.528;5.076;2022-12-20T07:26:31;83.63;;;78.88;;
60973;SDS011;46846;51.528;5.076;2022-12-20T07:28:56;72.80;;;68.60;;
60973;SDS011;46846;51.528;5.076;2022-12-20T07:31:22;75.73;;;71.00;;
60973;SDS011;46846;51.528;5.076;2022-12-20T07:33:47;84.40;;;79.28;;
60973;SDS011;46846;51.528;5.076;2022-12-20T07:36:13;79.47;;;74.90;;
60973;SDS011;46846;51.528;5.076;2022-12-20T07:38:42;78.03;;;73.50;;
60973;SDS011;46846;51.528;5.076;2022-12-20T07:43:37;80.60;;;76.00;;
60973;SDS011;46846;51.528;5.076;2022-12-20T07:46:03;75.20;;;70.95;;
60973;SDS011;46846;51.528;5.076;2022-12-20T07:48:29;77.53;;;73.18;;
60973;SDS011;46846;51.528;5.076;2022-12-20T07:51:00;79.30;;;74.45;;
60973;SDS011;46846;51.528;5.076;2022-12-20T07:53:30;75.30;;;71.00;;
60973;SDS011;46846;51.528;5.076;2022-12-20T07:56:02;80.72;;;75.78;;
60973;SDS011;46846;51.528;5.076;2022-12-20T07:58:30;79.38;;;74.82;;
60973;SDS011;46846;51.528;5.076;2022-12-20T08:00:59;83.93;;;79.18;;
60973;SDS011;46846;51.528;5.076;2022-12-20T08:03:27;77.10;;;72.65;;
60973;SDS011;46846;51.528;5.076;2022-12-20T08:05:57;81.68;;;77.13;;
60973;SDS011;46846;51.528;5.076;2022-12-20T08:08:27;80.80;;;76.00;;
60973;SDS011;46846;51.528;5.076;2022-12-20T08:10:55;83.78;;;78.95;;
60973;SDS011;46846;51.528;5.076;2022-12-20T08:13:21;77.57;;;73.18;;
60973;SDS011;46846;51.528;5.076;2022-12-20T08:15:47;76.97;;;72.55;;
60973;SDS011;46846;51.528;5.076;2022-12-20T08:18:12;75.00;;;70.72;;
60973;SDS011;46846;51.528;5.076;2022-12-20T08:20:38;76.97;;;72.53;;
60973;SDS011;46846;51.528;5.076;2022-12-20T08:23:03;80.33;;;75.63;;
60973;SDS011;46846;51.528;5.076;2022-12-20T08:25:28;76.03;;;71.68;;
60973;SDS011;46846;51.528;5.076;2022-12-20T08:27:54;79.13;;;74.55;;
60973;SDS011;46846;51.528;5.076;2022-12-20T08:30:20;82.72;;;78.03;;
60973;SDS011;46846;51.528;5.076;2022-12-20T08:32:45;78.97;;;74.25;;
60973;SDS011;46846;51.528;5.076;2022-12-20T08:35:10;75.40;;;71.10;;
60973;SDS011;46846;51.528;5.076;2022-12-20T08:37:36;72.07;;;67.90;;
60973;SDS011;46846;51.528;5.076;2022-12-20T08:40:02;80.38;;;75.70;;
60973;SDS011;46846;51.528;5.076;2022-12-20T08:42:29;78.22;;;73.80;;
60973;SDS011;46846;51.528;5.076;2022-12-20T08:44:54;83.18;;;78.43;;
60973;SDS011;46846;51.528;5.076;2022-12-20T08:47:19;76.40;;;71.93;;
60973;SDS011;46846;51.528;5.076;2022-12-20T08:49:45;75.05;;;70.43;;
60973;SDS011;46846;51.528;5.076;2022-12-20T08:52:10;81.30;;;76.43;;
60973;SDS011;46846;51.528;5.076;2022-12-20T08:54:36;78.87;;;74.07;;
60973;SDS011;46846;51.528;5.076;2022-12-20T08:57:01;79.10;;;74.50;;
60973;SDS011;46846;51.528;5.076;2022-12-20T08:59:27;79.97;;;75.20;;
60973;SDS011;46846;51.528;5.076;2022-12-20T09:01:52;77.65;;;73.25;;
60973;SDS011;46846;51.528;5.076;2022-12-20T09:04:19;82.90;;;77.93;;
60973;SDS011;46846;51.528;5.076;2022-12-20T09:06:45;81.18;;;76.35;;
60973;SDS011;46846;51.528;5.076;2022-12-20T09:09:10;78.72;;;74.13;;
60973;SDS011;46846;51.528;5.076;2022-12-20T09:11:36;75.03;;;70.60;;
60973;SDS011;46846;51.528;5.076;2022-12-20T09:14:01;76.15;;;71.35;;
60973;SDS011;46846;51.528;5.076;2022-12-20T09:16:28;78.60;;;74.00;;
60973;SDS011;46846;51.528;5.076;2022-12-20T09:18:56;87.90;;;82.43;;
60973;SDS011;46846;51.528;5.076;2022-12-20T09:21:23;80.75;;;76.15;;
60973;SDS011;46846;51.528;5.076;2022-12-20T09:26:15;73.95;;;69.68;;
60973;SDS011;46846;51.528;5.076;2022-12-20T09:31:09;70.35;;;66.10;;
60973;SDS011;46846;51.528;5.076;2022-12-20T09:33:36;75.03;;;70.72;;
60973;SDS011;46846;51.528;5.076;2022-12-20T09:36:02;85.25;;;80.30;;
60973;SDS011;46846;51.528;5.076;2022-12-20T09:38:28;79.53;;;74.95;;
60973;SDS011;46846;51.528;5.076;2022-12-20T09:40:56;75.18;;;70.82;;
60973;SDS011;46846;51.528;5.076;2022-12-20T09:43:25;74.70;;;70.10;;
60973;SDS011;46846;51.528;5.076;2022-12-20T09:48:19;72.40;;;68.28;;
60973;SDS011;46846;51.528;5.076;2022-12-20T09:56:30;79.40;;;74.93;;
60973;SDS011;46846;51.528;5.076;2022-12-20T10:01:28;83.20;;;78.35;;
60973;SDS011;46846;51.528;5.076;2022-12-20T10:03:56;78.97;;;74.53;;
60973;SDS011;46846;51.528;5.076;2022-12-20T10:06:35;80.55;;;75.97;;
60973;SDS011;46846;51.528;5.076;2022-12-20T10:12:18;81.53;;;76.40;;
60973;SDS011;46846;51.528;5.076;2022-12-20T10:17:45;74.47;;;70.03;;
60973;SDS011;46846;51.528;5.076;2022-12-20T10:23:26;83.22;;;78.47;;
60973;SDS011;46846;51.528;5.076;2022-12-20T10:25:57;81.63;;;76.95;;
60973;SDS011;46846;51.528;5.076;2022-12-20T10:28:30;82.15;;;77.50;;
60973;SDS011;46846;51.528;5.076;2022-12-20T10:31:04;77.55;;;72.97;;
60973;SDS011;46846;51.528;5.076;2022-12-20T10:33:41;80.15;;;75.53;;
60973;SDS011;46846;51.528;5.076;2022-12-20T10:39:06;82.00;;;76.90;;
60973;SDS011;46846;51.528;5.076;2022-12-20T10:44:15;79.90;;;75.18;;
60973;SDS011;46846;51.528;5.076;2022-12-20T10:46:48;89.72;;;84.70;;
60973;SDS011;46846;51.528;5.076;2022-12-20T10:49:37;87.57;;;82.63;;
60973;SDS011;46846;51.528;5.076;2022-12-20T10:54:43;77.50;;;73.07;;
60973;SDS011;46846;51.528;5.076;2022-12-20T10:57:19;81.07;;;76.35;;
60973;SDS011;46846;51.528;5.076;2022-12-20T10:59:51;78.45;;;73.85;;
60973;SDS011;46846;51.528;5.076;2022-12-20T11:05:43;83.03;;;77.97;;
60973;SDS011;46846;51.528;5.076;2022-12-20T11:07:52;84.85;;;80.00;;
60973;SDS011;46846;51.528;5.076;2022-12-20T11:10:24;84.10;;;78.83;;
60973;SDS011;46846;51.528;5.076;2022-12-20T11:12:52;83.32;;;78.45;;
60973;SDS011;46846;51.528;5.076;2022-12-20T11:15:21;82.93;;;77.95;;
60973;SDS011;46846;51.528;5.076;2022-12-20T11:17:49;90.78;;;85.45;;
60973;SDS011;46846;51.528;5.076;2022-12-20T11:20:24;87.88;;;82.90;;
60973;SDS011;46846;51.528;5.076;2022-12-20T11:26:02;84.72;;;79.88;;
60973;SDS011;46846;51.528;5.076;2022-12-20T11:37:08;82.35;;;77.70;;
60973;SDS011;46846;51.528;5.076;2022-12-20T11:45:41;80.15;;;75.30;;
60973;SDS011;46846;51.528;5.076;2022-12-20T11:51:09;79.68;;;75.07;;
60973;SDS011;46846;51.528;5.076;2022-12-20T11:53:41;84.10;;;79.07;;
60973;SDS011;46846;51.528;5.076;2022-12-20T11:56:14;84.60;;;79.72;;
60973;SDS011;46846;51.528;5.076;2022-12-20T11:58:50;84.47;;;79.50;;
60973;SDS011;46846;51.528;5.076;2022-12-20T12:01:23;82.10;;;77.25;;
60973;SDS011;46846;51.528;5.076;2022-12-20T12:04:17;84.78;;;79.38;;
60973;SDS011;46846;51.528;5.076;2022-12-20T12:09:32;80.60;;;76.03;;
60973;SDS011;46846;51.528;5.076;2022-12-20T12:12:09;86.78;;;81.70;;
60973;SDS011;46846;51.528;5.076;2022-12-20T12:20:19;90.35;;;85.10;;
60973;SDS011;46846;51.528;5.076;2022-12-20T12:22:50;77.57;;;72.95;;
60973;SDS011;46846;51.528;5.076;2022-12-20T12:25:21;86.60;;;81.13;;
60973;SDS011;46846;51.528;5.076;2022-12-20T12:27:47;84.60;;;79.70;;
60973;SDS011;46846;51.528;5.076;2022-12-20T12:30:13;88.45;;;83.35;;
60973;SDS011;46846;51.528;5.076;2022-12-20T12:32:41;89.47;;;84.45;;
60973;SDS011;46846;51.528;5.076;2022-12-20T12:35:22;85.07;;;80.18;;
60973;SDS011;46846;51.528;5.076;2022-12-20T12:38:02;87.40;;;82.10;;
60973;SDS011;46846;51.528;5.076;2022-12-20T12:46:27;90.03;;;84.57;;
60973;SDS011;46846;51.528;5.076;2022-12-20T12:51:25;75.15;;;70.82;;
60973;SDS011;46846;51.528;5.076;2022-12-20T12:54:01;80.03;;;74.47;;
60973;SDS011;46846;51.528;5.076;2022-12-20T12:56:50;89.93;;;84.63;;
60973;SDS011;46846;51.528;5.076;2022-12-20T12:59:21;87.50;;;82.53;;
60973;SDS011;46846;51.528;5.076;2022-12-20T13:04:30;85.43;;;80.55;;
60973;SDS011;46846;51.528;5.076;2022-12-20T13:15:48;90.80;;;85.30;;
60973;SDS011;46846;51.528;5.076;2022-12-20T13:20:27;81.68;;;77.00;;
60973;SDS011;46846;51.528;5.076;2022-12-20T13:25:40;90.10;;;84.97;;
60973;SDS011;46846;51.528;5.076;2022-12-20T13:33:39;79.43;;;74.85;;
60973;SDS011;46846;51.528;5.076;2022-12-20T13:43:47;86.18;;;80.97;;
60973;SDS011;46846;51.528;5.076;2022-12-20T13:46:30;82.80;;;77.65;;
60973;SDS011;46846;51.528;5.076;2022-12-20T13:49:30;83.53;;;78.75;;
60973;SDS011;46846;51.528;5.076;2022-12-20T13:52:17;90.20;;;85.05;;
60973;SDS011;46846;51.528;5.076;2022-12-20T13:54:49;89.05;;;83.95;;
60973;SDS011;46846;51.528;5.076;2022-12-20T13:58:02;84.07;;;79.35;;
60973;SDS011;46846;51.528;5.076;2022-12-20T14:02:47;87.18;;;82.00;;
60973;SDS011;46846;51.528;5.076;2022-12-20T14:05:22;78.15;;;73.63;;
60973;SDS011;46846;51.528;5.076;2022-12-20T14:08:00;84.47;;;79.57;;
60973;SDS011;46846;51.528;5.076;2022-12-20T14:10:30;84.00;;;79.20;;
60973;SDS011;46846;51.528;5.076;2022-12-20T14:12:57;87.05;;;82.10;;
60973;SDS011;46846;51.528;5.076;2022-12-20T14:15:30;86.07;;;80.90;;
60973;SDS011;46846;51.528;5.076;2022-12-20T14:18:03;88.68;;;83.30;;
60973;SDS011;46846;51.528;5.076;2022-12-20T14:20:32;83.75;;;78.65;;
60973;SDS011;46846;51.528;5.076;2022-12-20T14:23:09;84.90;;;80.05;;
60973;SDS011;46846;51.528;5.076;2022-12-20T14:25:49;90.60;;;85.32;;
60973;SDS011;46846;51.528;5.076;2022-12-20T14:28:21;84.25;;;79.43;;
60973;SDS011;46846;51.528;5.076;2022-12-20T14:30:49;83.30;;;78.00;;
60973;SDS011;46846;51.528;5.076;2022-12-20T14:33:26;84.47;;;79.68;;
60973;SDS011;46846;51.528;5.076;2022-12-20T14:38:47;80.78;;;76.03;;
60973;SDS011;46846;51.528;5.076;2022-12-20T14:44:02;92.10;;;86.90;;
60973;SDS011;46846;51.528;5.076;2022-12-20T14:46:31;90.88;;;85.78;;
60973;SDS011;46846;51.528;5.076;2022-12-20T14:51:40;81.25;;;76.45;;
60973;SDS011;46846;51.528;5.076;2022-12-20T14:54:05;90.87;;;85.23;;
60973;SDS011;46846;51.528;5.076;2022-12-20T14:56:35;82.20;;;77.47;;
60973;SDS011;46846;51.528;5.076;2022-12-20T14:59:05;79.53;;;74.95;;
60973;SDS011;46846;51.528;5.076;2022-12-20T15:01:40;89.10;;;83.90;;
60973;SDS011;46846;51.528;5.076;2022-12-20T15:04:18;97.68;;;92.10;;
60973;SDS011;46846;51.528;5.076;2022-12-20T15:06:47;93.18;;;87.80;;
60973;SDS011;46846;51.528;5.076;2022-12-20T15:09:13;83.50;;;78.68;;
60973;SDS011;46846;51.528;5.076;2022-12-20T15:11:38;85.20;;;79.72;;
60973;SDS011;46846;51.528;5.076;2022-12-20T15:17:03;87.93;;;82.90;;
60973;SDS011;46846;51.528;5.076;2022-12-20T15:19:33;91.70;;;86.28;;
60973;SDS011;46846;51.528;5.076;2022-12-20T15:21:59;92.57;;;87.35;;
60973;SDS011;46846;51.528;5.076;2022-12-20T15:24:25;91.25;;;86.05;;
60973;SDS011;46846;51.528;5.076;2022-12-20T15:26:52;93.68;;;88.28;;
60973;SDS011;46846;51.528;5.076;2022-12-20T15:29:19;88.13;;;83.07;;
60973;SDS011;46846;51.528;5.076;2022-12-20T15:31:49;90.43;;;85.15;;
60973;SDS011;46846;51.528;5.076;2022-12-20T15:36:47;91.10;;;85.68;;
60973;SDS011;46846;51.528;5.076;2022-12-20T15:39:12;92.63;;;87.28;;
60973;SDS011;46846;51.528;5.076;2022-12-20T15:41:39;90.22;;;84.63;;
60973;SDS011;46846;51.528;5.076;2022-12-20T15:44:15;90.22;;;84.97;;
60973;SDS011;46846;51.528;5.076;2022-12-20T15:46:45;90.80;;;85.50;;
60973;SDS011;46846;51.528;5.076;2022-12-20T15:49:14;84.13;;;79.28;;
60973;SDS011;46846;51.528;5.076;2022-12-20T15:51:41;85.97;;;81.05;;
60973;SDS011;46846;51.528;5.076;2022-12-20T15:54:22;88.53;;;83.35;;
60973;SDS011;46846;51.528;5.076;2022-12-20T15:56:51;87.32;;;82.20;;
60973;SDS011;46846;51.528;5.076;2022-12-20T15:59:20;91.38;;;86.25;;
60973;SDS011;46846;51.528;5.076;2022-12-20T16:01:45;88.93;;;83.57;;
60973;SDS011;46846;51.528;5.076;2022-12-20T16:04:12;96.40;;;90.72;;
60973;SDS011;46846;51.528;5.076;2022-12-20T16:06:40;92.32;;;86.93;;
60973;SDS011;46846;51.528;5.076;2022-12-20T16:09:06;92.55;;;87.15;;
60973;SDS011;46846;51.528;5.076;2022-12-20T16:11:31;90.37;;;85.17;;
60973;SDS011;46846;51.528;5.076;2022-12-20T16:13:57;93.50;;;88.28;;
60973;SDS011;46846;51.528;5.076;2022-12-20T16:16:24;91.38;;;85.82;;
60973;SDS011;46846;51.528;5.076;2022-12-20T16:18:51;91.68;;;86.18;;
60973;SDS011;46846;51.528;5.076;2022-12-20T16:21:20;86.80;;;81.50;;
60973;SDS011;46846;51.528;5.076;2022-12-20T16:23:47;83.57;;;78.72;;
60973;SDS011;46846;51.528;5.076;2022-12-20T16:26:17;85.97;;;80.85;;
60973;SDS011;46846;51.528;5.076;2022-12-20T16:28:44;88.05;;;83.03;;
60973;SDS011;46846;51.528;5.076;2022-12-20T16:33:41;89.88;;;84.25;;
60973;SDS011;46846;51.528;5.076;2022-12-20T16:36:08;82.63;;;77.88;;
60973;SDS011;46846;51.528;5.076;2022-12-20T16:38:35;84.40;;;79.20;;
60973;SDS011;46846;51.528;5.076;2022-12-20T16:41:14;88.97;;;83.90;;
60973;SDS011;46846;51.528;5.076;2022-12-20T16:43:41;87.70;;;82.38;;
60973;SDS011;46846;51.528;5.076;2022-12-20T16:46:09;92.70;;;87.30;;
60973;SDS011;46846;51.528;5.076;2022-12-20T16:48:40;98.50;;;92.78;;
60973;SDS011;46846;51.528;5.076;2022-12-20T16:51:48;88.28;;;83.03;;
60973;SDS011;46846;51.528;5.076;2022-12-20T16:53:57;90.13;;;84.70;;
60973;SDS011;46846;51.528;5.076;2022-12-20T16:56:24;92.75;;;87.45;;
60973;SDS011;46846;51.528;5.076;2022-12-20T16:58:50;88.78;;;83.70;;
60973;SDS011;46846;51.528;5.076;2022-12-20T17:01:16;91.57;;;86.32;;